createdAt,value
2018-06-13T00:00:17.400Z,15.36
2018-06-13T00:02:46.701Z,15.41
2018-06-13T00:05:15.987Z,15.36
2018-06-13T00:07:45.213Z,15.32
2018-06-13T00:10:14.337Z,15.30
2018-06-13T00:12:43.483Z,15.33
2018-06-13T00:15:12.578Z,15.36
2018-06-13T00:17:41.764Z,15.35
2018-06-13T00:20:10.933Z,15.36
2018-06-13T00:22:40.028Z,15.36
2018-06-13T00:25:09.266Z,15.39
2018-06-13T00:27:38.464Z,15.36
2018-06-13T00:30:07.579Z,15.35
2018-06-13T00:32:36.797Z,15.27
2018-06-13T00:35:05.916Z,15.27
2018-06-13T00:37:35.049Z,15.31
2018-06-13T00:40:04.188Z,15.25
2018-06-13T00:42:33.300Z,15.18
2018-06-13T00:45:02.436Z,15.06
2018-06-13T00:47:38.313Z,15.02
2018-06-13T00:50:07.466Z,15.05
2018-06-13T00:52:36.588Z,15.05
2018-06-13T00:55:06.045Z,15.15
2018-06-13T00:57:35.171Z,15.08
2018-06-13T01:00:04.842Z,15.06
2018-06-13T01:02:33.986Z,15.06
2018-06-13T01:05:03.224Z,15.05
2018-06-13T01:07:32.409Z,15.05
2018-06-13T01:10:01.591Z,15.06
2018-06-13T01:12:30.707Z,15.11
2018-06-13T01:14:59.846Z,15.07
2018-06-13T01:17:29.053Z,15.04
2018-06-13T01:19:58.177Z,15.03
2018-06-13T01:22:27.408Z,15.01
2018-06-13T01:25:09.750Z,15.05
2018-06-13T01:27:39.994Z,15.07
2018-06-13T01:30:09.227Z,15.13
2018-06-13T01:32:38.428Z,15.08
2018-06-13T01:35:07.589Z,15.07
2018-06-13T01:37:36.755Z,15.05
2018-06-13T01:40:06.201Z,15.13
2018-06-13T01:42:35.399Z,15.02
2018-06-13T01:45:04.582Z,14.94
2018-06-13T01:47:33.746Z,15.00
2018-06-13T01:50:02.907Z,15.03
2018-06-13T01:52:32.066Z,15.08
2018-06-13T01:55:01.163Z,15.10
2018-06-13T01:57:30.307Z,15.12
2018-06-13T01:59:59.547Z,15.18
2018-06-13T02:02:28.666Z,15.21
2018-06-13T02:04:57.894Z,15.21
2018-06-13T02:07:27.008Z,15.22
2018-06-13T02:09:56.114Z,15.27
2018-06-13T02:12:25.622Z,15.32
2018-06-13T02:14:54.853Z,15.30
2018-06-13T02:17:24.032Z,15.26
2018-06-13T02:19:53.123Z,15.25
2018-06-13T02:22:22.276Z,15.36
2018-06-13T02:24:51.426Z,15.25
2018-06-13T02:27:20.568Z,15.20
2018-06-13T02:29:49.704Z,15.14
2018-06-13T02:32:19.725Z,15.15
2018-06-13T02:34:48.881Z,15.16
2018-06-13T02:37:18.145Z,15.16
2018-06-13T02:39:47.340Z,15.14
2018-06-13T02:42:16.723Z,15.14
2018-06-13T02:44:45.939Z,15.16
2018-06-13T02:47:15.117Z,15.12
2018-06-13T02:49:44.290Z,15.19
2018-06-13T02:52:13.524Z,15.17
2018-06-13T02:54:42.693Z,15.20
2018-06-13T02:57:11.862Z,15.17
2018-06-13T02:59:41.019Z,15.18
2018-06-13T03:02:10.259Z,15.22
2018-06-13T03:04:39.444Z,15.16
2018-06-13T03:07:08.603Z,15.11
2018-06-13T03:09:37.761Z,15.08
2018-06-13T03:12:07.352Z,15.11
2018-06-13T03:14:36.516Z,15.15
2018-06-13T03:17:05.695Z,15.11
2018-06-13T03:19:34.819Z,15.13
2018-06-13T03:22:03.948Z,15.10
2018-06-13T03:24:33.113Z,15.12
2018-06-13T03:27:02.246Z,15.12
2018-06-13T03:29:31.421Z,15.15
2018-06-13T03:32:00.647Z,15.14
2018-06-13T03:34:29.843Z,15.19
2018-06-13T03:36:59.028Z,15.16
2018-06-13T03:39:28.112Z,15.21
2018-06-13T03:41:57.240Z,15.25
2018-06-13T03:44:46.160Z,15.24
2018-06-13T03:47:19.518Z,15.25
2018-06-13T03:49:48.765Z,15.28
2018-06-13T03:52:17.890Z,15.31
2018-06-13T03:54:47.147Z,15.24
2018-06-13T03:57:16.410Z,15.29
2018-06-13T03:59:45.518Z,15.28
2018-06-13T04:02:14.703Z,15.24
2018-06-13T04:04:43.845Z,15.18
2018-06-13T04:07:13.101Z,15.14
2018-06-13T04:09:42.264Z,15.22
2018-06-13T04:12:11.377Z,15.23
2018-06-13T04:14:40.559Z,15.29
2018-06-13T04:17:09.712Z,15.24
2018-06-13T04:19:38.894Z,15.23
2018-06-13T04:22:08.092Z,15.25
2018-06-13T04:24:37.482Z,15.25
2018-06-13T04:27:06.631Z,15.33
2018-06-13T04:29:35.784Z,15.25
2018-06-13T04:32:04.969Z,15.19
2018-06-13T04:34:34.151Z,15.23
2018-06-13T04:37:03.388Z,15.29
2018-06-13T04:39:32.508Z,15.36
2018-06-13T04:42:01.875Z,15.38
2018-06-13T04:44:31.015Z,15.40
2018-06-13T04:47:00.253Z,15.43
2018-06-13T04:49:29.376Z,15.53
2018-06-13T04:51:58.560Z,15.62
2018-06-13T04:54:27.667Z,15.72
2018-06-13T04:56:56.825Z,15.75
2018-06-13T04:59:25.938Z,15.80
2018-06-13T05:01:55.093Z,15.80
2018-06-13T05:04:24.378Z,15.70
2018-06-13T05:06:53.559Z,15.67
2018-06-13T05:09:22.784Z,15.64
2018-06-13T05:11:51.984Z,15.68
2018-06-13T05:14:21.172Z,15.77
2018-06-13T05:16:50.373Z,15.73
2018-06-13T05:19:19.578Z,15.73
2018-06-13T05:21:48.746Z,15.72
2018-06-13T05:24:17.945Z,15.73
2018-06-13T05:26:47.164Z,15.81
2018-06-13T05:29:16.301Z,15.68
2018-06-13T05:31:45.452Z,15.69
2018-06-13T05:34:14.692Z,15.60
2018-06-13T05:36:43.853Z,15.66
2018-06-13T05:39:12.982Z,15.58
2018-06-13T05:41:43.109Z,15.56
2018-06-13T05:44:12.509Z,15.68
2018-06-13T05:46:42.159Z,15.69
2018-06-13T05:49:11.403Z,15.82
2018-06-13T05:51:40.676Z,15.89
2018-06-13T05:54:10.859Z,15.84
2018-06-13T05:56:41.060Z,15.91
2018-06-13T05:59:11.209Z,15.97
2018-06-13T06:01:40.407Z,15.87
2018-06-13T06:04:09.560Z,15.79
2018-06-13T06:06:38.708Z,15.76
2018-06-13T06:09:09.481Z,15.81
2018-06-13T06:11:38.595Z,15.87
2018-06-13T06:14:07.794Z,15.87
2018-06-13T06:16:37.033Z,15.85
2018-06-13T06:19:06.193Z,15.87
2018-06-13T06:21:35.486Z,15.89
2018-06-13T06:24:04.680Z,15.92
2018-06-13T06:26:33.852Z,16.06
2018-06-13T06:29:03.082Z,15.91
2018-06-13T06:31:32.230Z,15.94
2018-06-13T06:34:01.354Z,16.01
2018-06-13T06:36:30.486Z,16.09
2018-06-13T06:38:59.712Z,16.16
2018-06-13T06:41:28.868Z,16.37
2018-06-13T06:43:58.141Z,16.39
2018-06-13T06:46:27.359Z,16.57
2018-06-13T06:48:56.599Z,16.61
2018-06-13T06:51:25.772Z,16.46
2018-06-13T06:53:55.190Z,16.45
2018-06-13T06:56:24.381Z,16.46
2018-06-13T06:58:53.747Z,16.50
2018-06-13T07:01:22.902Z,16.63
2018-06-13T07:03:52.175Z,16.59
2018-06-13T07:06:21.453Z,16.50
2018-06-13T07:08:50.627Z,16.57
2018-06-13T07:11:19.823Z,16.53
2018-06-13T07:13:48.992Z,16.62
2018-06-13T07:16:18.157Z,16.45
2018-06-13T07:18:47.359Z,16.46
2018-06-13T07:21:16.559Z,16.43
2018-06-13T07:23:45.815Z,16.58
2018-06-13T07:26:15.110Z,16.60
2018-06-13T07:28:44.245Z,16.56
2018-06-13T07:31:13.512Z,16.59
2018-06-13T07:33:42.786Z,16.40
2018-06-13T07:36:12.123Z,16.22
2018-06-13T07:38:41.270Z,16.20
2018-06-13T07:41:10.517Z,16.26
2018-06-13T07:43:39.674Z,16.17
2018-06-13T07:46:08.859Z,16.11
2018-06-13T07:48:38.037Z,16.01
2018-06-13T07:51:07.201Z,16.00
2018-06-13T07:53:36.413Z,16.09
2018-06-13T07:56:05.730Z,16.19
2018-06-13T07:58:34.919Z,16.24
2018-06-13T08:01:04.895Z,16.20
2018-06-13T08:03:34.079Z,16.30
2018-06-13T08:06:03.236Z,16.28
2018-06-13T08:08:32.417Z,16.17
2018-06-13T08:11:01.597Z,16.27
2018-06-13T08:16:27.372Z,16.33
2018-06-13T08:18:56.638Z,16.50
2018-06-13T08:21:25.882Z,16.65
2018-06-13T08:23:55.090Z,16.81
2018-06-13T08:26:24.218Z,16.87
2018-06-13T08:28:53.361Z,16.98
2018-06-13T08:31:22.531Z,16.96
2018-06-13T08:33:51.711Z,16.87
2018-06-13T08:36:20.893Z,16.80
2018-06-13T08:38:50.127Z,16.74
2018-06-13T08:41:19.253Z,16.62
2018-06-13T08:43:48.420Z,16.71
2018-06-13T08:46:17.525Z,16.84
2018-06-13T08:48:46.618Z,16.98
2018-06-13T08:51:15.777Z,17.07
2018-06-13T08:53:44.971Z,17.06
2018-06-13T08:56:14.197Z,17.23
2018-06-13T08:58:43.364Z,17.42
2018-06-13T09:01:13.518Z,17.49
2018-06-13T09:03:42.699Z,17.55
2018-06-13T09:06:12.000Z,17.49
2018-06-13T09:08:41.200Z,17.51
2018-06-13T09:11:10.504Z,17.27
2018-06-13T09:13:39.758Z,17.02
2018-06-13T09:19:25.088Z,16.77
2018-06-13T09:21:54.220Z,16.67
2018-06-13T09:24:24.948Z,16.62
2018-06-13T09:26:54.144Z,16.68
2018-06-13T09:29:23.246Z,16.78
2018-06-13T09:31:52.402Z,16.77
2018-06-13T09:34:21.562Z,16.85
2018-06-13T09:36:50.752Z,16.96
2018-06-13T09:39:19.901Z,16.94
2018-06-13T09:41:54.210Z,17.05
2018-06-13T09:44:23.420Z,17.20
2018-06-13T09:46:52.569Z,17.23
2018-06-13T09:49:21.742Z,17.40
2018-06-13T09:51:50.921Z,17.41
2018-06-13T09:54:20.070Z,17.27
2018-06-13T09:56:50.451Z,17.38
2018-06-13T09:59:20.451Z,17.42
2018-06-13T10:01:56.306Z,17.53
2018-06-13T10:04:25.771Z,17.45
2018-06-13T10:06:55.234Z,17.74
2018-06-13T10:09:24.462Z,17.78
2018-06-13T10:11:53.808Z,17.97
2018-06-13T10:14:23.131Z,18.12
2018-06-13T10:16:52.284Z,18.26
2018-06-13T10:19:21.558Z,18.31
2018-06-13T10:21:51.023Z,18.07
2018-06-13T10:24:20.311Z,18.10
2018-06-13T10:26:49.839Z,18.14
2018-06-13T10:29:19.162Z,18.07
2018-06-13T10:31:48.527Z,18.14
2018-06-13T10:34:18.352Z,18.08
2018-06-13T10:36:47.455Z,18.03
2018-06-13T10:39:17.964Z,17.78
2018-06-13T10:41:49.470Z,17.55
2018-06-13T10:44:24.683Z,17.62
2018-06-13T10:46:57.055Z,17.37
2018-06-13T10:49:34.929Z,17.25
2018-06-13T10:52:06.801Z,16.98
2018-06-13T10:54:39.565Z,16.99
2018-06-13T10:57:12.684Z,17.00
2018-06-13T10:59:43.774Z,16.79
2018-06-13T11:02:13.818Z,16.85
2018-06-13T11:04:46.629Z,16.93
2018-06-13T11:07:18.769Z,16.98
2018-06-13T11:09:50.026Z,16.95
2018-06-13T11:12:19.748Z,17.00
2018-06-13T11:14:49.757Z,17.18
2018-06-13T11:17:19.802Z,17.29
2018-06-13T11:19:49.492Z,17.37
2018-06-13T11:22:18.938Z,17.65
2018-06-13T11:24:48.479Z,17.82
2018-06-13T11:27:17.616Z,17.79
2018-06-13T11:29:46.869Z,17.87
2018-06-13T11:32:16.165Z,17.74
2018-06-13T11:34:45.523Z,17.62
2018-06-13T11:37:15.017Z,17.57
2018-06-13T11:39:44.458Z,17.41
2018-06-13T11:42:13.714Z,17.42
2018-06-13T11:44:43.015Z,17.39
2018-06-13T11:47:12.215Z,17.41
2018-06-13T11:49:41.480Z,17.44
2018-06-13T11:52:10.739Z,17.57
2018-06-13T11:54:39.889Z,17.52
2018-06-13T11:57:09.461Z,17.52
2018-06-13T11:59:38.662Z,17.75
2018-06-13T12:02:07.882Z,18.05
2018-06-13T12:04:37.032Z,18.17
2018-06-13T12:07:06.370Z,18.47
2018-06-13T12:09:36.178Z,18.77
2018-06-13T12:12:05.679Z,18.94
2018-06-13T12:14:34.979Z,19.04
2018-06-13T12:17:04.220Z,19.16
2018-06-13T12:19:33.589Z,19.46
2018-06-13T12:22:02.787Z,19.75
2018-06-13T12:24:31.933Z,20.10
2018-06-13T12:27:01.107Z,20.28
2018-06-13T12:29:30.310Z,20.42
2018-06-13T12:31:59.747Z,20.15
2018-06-13T12:34:29.047Z,19.66
2018-06-13T12:36:58.273Z,19.45
2018-06-13T12:39:28.738Z,19.29
2018-06-13T12:41:58.066Z,19.15
2018-06-13T12:44:27.698Z,19.19
2018-06-13T12:46:56.865Z,19.33
2018-06-13T12:49:26.020Z,19.55
2018-06-13T12:51:55.258Z,19.68
2018-06-13T12:54:24.508Z,19.80
2018-06-13T12:56:53.981Z,19.66
2018-06-13T12:59:23.088Z,19.64
2018-06-13T13:01:52.297Z,19.72
2018-06-13T13:04:21.453Z,19.60
2018-06-13T13:06:50.697Z,19.48
2018-06-13T13:09:19.877Z,19.41
2018-06-13T13:11:49.112Z,19.79
2018-06-13T13:14:18.304Z,20.19
2018-06-13T13:16:47.501Z,20.65
2018-06-13T13:19:16.695Z,20.95
2018-06-13T13:21:45.810Z,21.01
2018-06-13T13:24:15.060Z,21.20
2018-06-13T13:26:44.209Z,21.17
2018-06-13T13:29:13.421Z,21.09
2018-06-13T13:31:42.762Z,21.03
2018-06-13T13:34:11.968Z,20.85
2018-06-13T13:36:41.111Z,20.94
2018-06-13T13:39:11.227Z,20.90
2018-06-13T13:41:41.108Z,20.58
2018-06-13T13:44:10.357Z,20.26
2018-06-13T13:46:39.483Z,20.16
2018-06-13T13:49:08.631Z,19.95
2018-06-13T13:51:37.820Z,19.58
2018-06-13T13:54:07.031Z,19.57
2018-06-13T13:56:36.137Z,19.59
2018-06-13T13:59:05.353Z,19.49
2018-06-13T14:01:34.661Z,19.42
2018-06-13T14:04:03.790Z,19.50
2018-06-13T14:06:33.000Z,19.45
2018-06-13T14:09:02.400Z,19.57
2018-06-13T14:11:31.585Z,19.91
2018-06-13T14:14:00.795Z,20.37
2018-06-13T14:16:30.710Z,20.88
2018-06-13T14:18:59.887Z,20.92
2018-06-13T14:21:29.454Z,21.18
2018-06-13T14:23:58.812Z,21.40
2018-06-13T14:26:28.008Z,21.77
2018-06-13T14:28:57.199Z,21.93
2018-06-13T14:31:26.385Z,21.80
2018-06-13T14:33:55.561Z,21.62
2018-06-13T14:36:24.691Z,21.59
2018-06-13T14:38:54.154Z,21.51
2018-06-13T14:41:23.304Z,21.70
2018-06-13T14:43:52.437Z,22.31
2018-06-13T14:46:21.731Z,23.01
2018-06-13T14:48:50.953Z,23.24
2018-06-13T14:51:20.211Z,23.13
2018-06-13T14:53:49.380Z,22.66
2018-06-13T14:56:23.620Z,22.11
2018-06-13T14:58:52.766Z,21.69
2018-06-13T15:01:22.057Z,21.09
2018-06-13T15:03:51.234Z,20.71
2018-06-13T15:06:20.585Z,20.35
2018-06-13T15:08:49.857Z,20.09
2018-06-13T15:11:19.039Z,20.35
2018-06-13T15:13:48.250Z,20.38
2018-06-13T15:16:17.380Z,20.48
2018-06-13T15:18:46.867Z,20.47
2018-06-13T15:21:16.204Z,20.63
2018-06-13T15:23:45.720Z,20.68
2018-06-13T15:26:14.939Z,20.85
2018-06-13T15:28:44.139Z,20.76
2018-06-13T15:31:13.453Z,20.54
2018-06-13T15:33:42.658Z,20.51
2018-06-13T15:36:11.818Z,20.47
2018-06-13T15:38:40.987Z,20.35
2018-06-13T15:41:10.117Z,20.05
2018-06-13T15:43:39.295Z,20.12
2018-06-13T15:46:08.471Z,20.19
2018-06-13T15:48:37.705Z,20.30
2018-06-13T15:51:06.855Z,20.46
2018-06-13T15:53:35.992Z,20.51
2018-06-13T15:56:05.374Z,20.64
2018-06-13T15:58:34.767Z,20.67
2018-06-13T16:01:03.990Z,20.59
2018-06-13T16:03:33.155Z,20.60
2018-06-13T16:06:02.290Z,20.35
2018-06-13T16:08:31.450Z,20.23
2018-06-13T16:11:00.930Z,20.10
2018-06-13T16:13:30.135Z,20.28
2018-06-13T16:16:01.940Z,20.20
2018-06-13T16:18:31.255Z,20.20
2018-06-13T16:21:00.483Z,20.07
2018-06-13T16:23:29.778Z,20.03
2018-06-13T16:25:59.173Z,19.98
2018-06-13T16:28:28.846Z,19.87
2018-06-13T16:30:58.112Z,19.82
2018-06-13T16:33:28.087Z,19.73
2018-06-13T16:35:57.894Z,19.71
2018-06-13T16:38:27.073Z,19.60
2018-06-13T16:40:56.519Z,19.78
2018-06-13T16:43:25.874Z,19.88
2018-06-13T16:45:55.386Z,19.93
2018-06-13T16:48:24.895Z,19.77
2018-06-13T16:51:05.439Z,19.78
2018-06-13T16:53:48.235Z,19.71
2018-06-13T16:56:17.670Z,19.53
2018-06-13T16:58:47.402Z,19.49
2018-06-13T17:01:16.781Z,19.39
2018-06-13T17:03:46.298Z,19.37
2018-06-13T17:06:15.831Z,19.37
2018-06-13T17:08:45.377Z,19.31
2018-06-13T17:11:15.123Z,19.33
2018-06-13T17:13:45.408Z,19.29
2018-06-13T17:16:14.875Z,19.23
2018-06-13T17:18:44.108Z,19.23
2018-06-13T17:21:13.438Z,19.18
2018-06-13T17:23:42.978Z,19.14
2018-06-13T17:26:12.282Z,19.06
2018-06-13T17:28:42.586Z,19.00
2018-06-13T17:31:11.874Z,19.03
2018-06-13T17:33:41.001Z,18.99
2018-06-13T17:36:10.237Z,19.02
2018-06-13T17:38:40.210Z,19.10
2018-06-13T17:41:09.444Z,19.02
2018-06-13T17:43:38.622Z,19.07
2018-06-13T17:46:07.789Z,19.04
2018-06-13T17:48:36.940Z,19.02
2018-06-13T17:51:06.236Z,18.96
2018-06-13T17:53:35.408Z,18.89
2018-06-13T17:56:04.702Z,19.01
2018-06-13T17:58:33.888Z,18.93
2018-06-13T18:01:03.095Z,18.96
2018-06-13T18:03:32.243Z,19.00
2018-06-13T18:06:01.793Z,19.03
2018-06-13T18:08:31.118Z,19.02
2018-06-13T18:11:00.321Z,19.06
2018-06-13T18:13:29.756Z,19.04
2018-06-13T18:15:58.915Z,19.06
2018-06-13T18:18:28.113Z,19.07
2018-06-13T18:20:57.490Z,18.97
2018-06-13T18:23:26.623Z,18.94
2018-06-13T18:25:55.911Z,18.86
2018-06-13T18:28:25.035Z,18.79
2018-06-13T18:30:54.242Z,18.72
2018-06-13T18:33:23.432Z,18.63
2018-06-13T18:35:52.601Z,18.56
2018-06-13T18:38:21.871Z,18.62
2018-06-13T18:40:51.065Z,18.46
2018-06-13T18:43:20.196Z,18.43
2018-06-13T18:45:49.394Z,18.42
2018-06-13T18:48:25.045Z,18.39
2018-06-13T18:50:54.262Z,18.36
2018-06-13T18:53:23.396Z,18.23
2018-06-13T18:55:52.603Z,18.19
2018-06-13T18:58:21.713Z,18.18
2018-06-13T19:00:51.026Z,18.16
2018-06-13T19:03:20.158Z,18.07
2018-06-13T19:05:49.560Z,18.03
2018-06-13T19:08:19.089Z,18.03
2018-06-13T19:10:48.460Z,17.97
2018-06-13T19:13:17.657Z,17.90
2018-06-13T19:15:47.142Z,17.85
2018-06-13T19:18:16.608Z,17.83
2018-06-13T19:20:45.849Z,17.75
2018-06-13T19:23:15.109Z,17.67
2018-06-13T19:25:44.425Z,17.65
2018-06-13T19:28:13.859Z,17.69
2018-06-13T19:30:43.221Z,17.59
2018-06-13T19:33:12.621Z,17.62
2018-06-13T19:35:41.917Z,17.57
2018-06-13T19:38:11.306Z,17.51
2018-06-13T19:40:40.619Z,17.49
2018-06-13T19:43:15.205Z,17.37
2018-06-13T19:45:44.574Z,17.34
2018-06-13T19:48:19.107Z,17.28
2018-06-13T19:50:48.474Z,17.28
2018-06-13T19:53:22.928Z,17.34
2018-06-13T19:55:57.458Z,17.23
2018-06-13T19:58:26.700Z,17.17
2018-06-13T20:00:55.929Z,17.15
2018-06-13T20:03:30.433Z,17.10
2018-06-13T20:05:59.634Z,17.06
2018-06-13T20:08:28.893Z,17.03
2018-06-13T20:10:58.431Z,17.01
2018-06-13T20:13:32.884Z,16.99
2018-06-13T20:16:07.471Z,17.00
2018-06-13T20:18:41.882Z,16.97
2018-06-13T20:21:11.960Z,16.96
2018-06-13T20:23:42.240Z,16.90
2018-06-13T20:26:16.756Z,16.88
2018-06-13T20:28:50.993Z,16.92
2018-06-13T20:31:25.197Z,16.94
2018-06-13T20:33:54.369Z,16.91
2018-06-13T20:36:24.755Z,16.92
2018-06-13T20:38:53.932Z,16.82
2018-06-13T20:41:23.124Z,16.78
2018-06-13T20:43:52.385Z,16.84
2018-06-13T20:46:21.558Z,16.78
2018-06-13T20:48:50.695Z,16.71
2018-06-13T20:51:19.949Z,16.65
2018-06-13T20:53:49.141Z,16.69
2018-06-13T20:56:18.290Z,16.65
2018-06-13T20:58:47.428Z,16.64
2018-06-13T21:01:16.671Z,16.59
2018-06-13T21:03:45.933Z,16.56
2018-06-13T21:06:15.187Z,16.54
2018-06-13T21:08:44.557Z,16.51
2018-06-13T21:11:13.710Z,16.48
2018-06-13T21:13:42.959Z,16.44
2018-06-13T21:16:12.126Z,16.41
2018-06-13T21:18:41.315Z,16.38
2018-06-13T21:21:10.471Z,16.37
2018-06-13T21:23:39.647Z,16.34
2018-06-13T21:26:08.795Z,16.29
2018-06-13T21:28:37.959Z,16.26
2018-06-13T21:31:07.112Z,16.22
2018-06-13T21:33:36.796Z,16.21
2018-06-13T21:36:06.040Z,16.21
2018-06-13T21:38:35.177Z,16.21
2018-06-13T21:41:04.589Z,16.20
2018-06-13T21:43:33.730Z,16.19
2018-06-13T21:46:02.889Z,16.18
2018-06-13T21:48:32.185Z,16.20
2018-06-13T21:51:01.404Z,16.21
2018-06-13T21:53:30.633Z,16.21
2018-06-13T21:55:59.801Z,16.19
2018-06-13T21:58:28.925Z,16.18
2018-06-13T22:00:58.134Z,16.17
2018-06-13T22:03:27.370Z,16.17
2018-06-13T22:05:56.584Z,16.17
2018-06-13T22:08:25.741Z,16.13
2018-06-13T22:10:54.895Z,16.09
2018-06-13T22:13:24.145Z,16.07
2018-06-13T22:15:53.212Z,16.03
2018-06-13T22:18:22.354Z,15.99
2018-06-13T22:20:51.584Z,15.97
2018-06-13T22:23:20.686Z,15.94
2018-06-13T22:25:49.837Z,15.91
2018-06-13T22:28:18.940Z,15.87
2018-06-13T22:30:48.194Z,15.86
2018-06-13T22:33:17.312Z,15.82
2018-06-13T22:35:46.483Z,15.79
2018-06-13T22:38:16.374Z,15.77
2018-06-13T22:40:45.509Z,15.73
2018-06-13T22:43:14.669Z,15.69
2018-06-13T22:45:43.791Z,15.65
2018-06-13T22:48:12.949Z,15.61
2018-06-13T22:50:42.600Z,15.54
2018-06-13T22:53:11.811Z,15.51
2018-06-13T22:55:41.016Z,15.46
2018-06-13T22:58:10.115Z,15.43
2018-06-13T23:01:11.654Z,15.40
2018-06-13T23:03:41.053Z,15.35
2018-06-13T23:06:11.234Z,15.33
2018-06-13T23:08:40.496Z,15.26
2018-06-13T23:11:09.668Z,15.25
2018-06-13T23:13:38.820Z,15.19
2018-06-13T23:16:07.994Z,15.15
2018-06-13T23:18:37.112Z,15.11
2018-06-13T23:21:06.335Z,15.07
2018-06-13T23:23:35.711Z,15.05
2018-06-13T23:26:04.863Z,14.98
2018-06-13T23:28:33.948Z,14.95
2018-06-13T23:31:03.141Z,14.91
2018-06-13T23:33:32.358Z,14.89
2018-06-13T23:36:01.679Z,14.83
2018-06-13T23:38:30.865Z,14.77
2018-06-13T23:40:59.963Z,14.72
2018-06-13T23:43:29.254Z,14.69
2018-06-13T23:45:58.355Z,14.63
2018-06-13T23:48:27.511Z,14.60
2018-06-13T23:50:56.597Z,14.56
2018-06-13T23:53:25.817Z,14.57
2018-06-13T23:55:54.972Z,14.52
2018-06-13T23:58:24.183Z,14.48
